Surface observations / UK / EGBB

Quebec | Canada | USA | France | UK | Europe | Elsewhere

Display: Info & Location for EGBB | Help decoding METAR

EGBB BIRMINGHAM AIRPORT -- UK
Raw surface observations for station EGBB
EGBB 302350Z VRB03KT CAVOK 09/09 Q1008=
EGBB 302320Z 18004KT CAVOK 09/09 Q1008=
EGBB 302250Z 19003KT CAVOK 09/09 Q1009=
EGBB 302150Z 17004KT CAVOK 09/09 Q1009=
EGBB 302120Z 20004KT CAVOK 10/09 Q1009=
EGBB 302050Z 19005KT 9999 FEW034 10/09 Q1009=
EGBB 302020Z 18004KT 9999 FEW036 10/09 Q1010=
EGBB 301950Z 16004KT 9999 FEW027 09/09 Q1010=
EGBB 301920Z 00000KT 9999 FEW028 11/10 Q1010=
EGBB 301850Z 20004KT 9999 FEW044 11/10 Q1010=
EGBB 301820Z VRB03KT 9999 FEW045CB 12/10 Q1010=
EGBB 301750Z 19005KT 9999 VCSH FEW044CB 12/10 Q1010=
EGBB 301720Z 20004KT 170V250 9999 VCSH FEW038CB SCT053TCU 14/09 Q1009=
EGBB 301650Z 26005KT 200V300 9999 VCSH FEW032CB SCT052TCU 14/07 Q1009=
EGBB 301620Z 24006KT 200V280 9999 VCSH FEW039CB SCT060TCU 15/07 Q1009=
EGBB 301550Z 23008KT 200V270 9999 VCSH FEW039 SCT064TCU 15/07 Q1009=
EGBB 301520Z 21007KT 190V250 9999 FEW033 SCT039TCU 16/09 Q1009=
EGBB 301450Z 23008KT 200V270 9999 VCSH FEW039 SCT058TCU 16/08 Q1009=
EGBB 301350Z 22008KT 190V260 9999 FEW015 SCT033CB 15/09 Q1010=
EGBB 301320Z 23008KT 190V260 9999 -SHRA FEW024 SCT033TCU 15/09 Q1010=
EGBB 301250Z 22007KT 180V260 9999 FEW028TCU SCT033 16/09 Q1010=
EGBB 301220Z 25006KT 210V290 9999 FEW028TCU SCT034 15/09 Q1010=
EGBB 301150Z 22008KT 190V260 9999 SCT028 14/09 Q1011=
EGBB 301120Z 23009KT 190V270 9999 SCT028 14/08 Q1011=
EGBB 301050Z 23007KT 190V270 9999 FEW022 14/09 Q1011=
EGBB 301020Z 22007KT 170V260 9999 FEW020 14/10 Q1011=
EGBB 300950Z 23007KT 200V270 9999 FEW015 12/09 Q1011=
EGBB 300920Z 22008KT 190V260 9999 FEW020 12/09 Q1011=
EGBB 300850Z 21007KT 180V240 CAVOK 12/10 Q1011=
EGBB 300820Z 21006KT 170V270 CAVOK 11/09 Q1011=
EGBB 300750Z 19005KT 150V230 CAVOK 10/10 Q1011=
EGBB 300720Z 20005KT 160V240 9999 FEW008CB 10/09 Q1011=
EGBB 300650Z 19005KT CAVOK 09/09 Q1011=
EGBB 300620Z 19005KT CAVOK 09/09 Q1011=
EGBB 300550Z 19004KT CAVOK 09/08 Q1011=
EGBB 300520Z 20004KT CAVOK 09/09 Q1011=
EGBB 300450Z 20005KT CAVOK 09/08 Q1011=
EGBB 300420Z 19005KT CAVOK 09/08 Q1011=
EGBB 300350Z 21005KT 180V240 CAVOK 10/09 Q1011=
EGBB 300320Z 21005KT 180V250 CAVOK 10/09 Q1011=
EGBB 300250Z 22006KT 190V250 CAVOK 10/09 Q1011=
EGBB 300220Z 23006KT 210V270 CAVOK 11/09 Q1011=
EGBB 300150Z 22005KT 180V250 CAVOK 10/09 Q1011=
EGBB 300120Z 22006KT 180V270 CAVOK 11/09 Q1012=
EGBB 010120Z VRB03KT CAVOK 08/08 Q1007=
EGBB 010050Z 14004KT CAVOK 07/07 Q1008=
EGBB 010020Z 17003KT CAVOK 08/08 Q1008=